sensor_id;sensor_type;location;lat;lon;timestamp;pressure;altitude;pressure_sealevel;temperature;humidity
70338;BME280;57757;53.198;19.646;2023-08-17T00:00:51;100599.73;;;20.82;52.42
70338;BME280;57757;53.198;19.646;2023-08-17T00:03:33;100598.04;;;20.84;52.63
70338;BME280;57757;53.198;19.646;2023-08-17T00:06:01;100594.55;;;20.83;52.62
70338;BME280;57757;53.198;19.646;2023-08-17T00:08:29;100597.73;;;20.83;52.64
70338;BME280;57757;53.198;19.646;2023-08-17T00:10:56;100599.73;;;20.82;52.58
70338;BME280;57757;53.198;19.646;2023-08-17T00:13:24;100603.59;;;20.82;52.70
70338;BME280;57757;53.198;19.646;2023-08-17T00:15:52;100609.16;;;20.81;52.82
70338;BME280;57757;53.198;19.646;2023-08-17T00:18:20;100619.96;;;20.81;52.88
70338;BME280;57757;53.198;19.646;2023-08-17T00:20:47;100620.85;;;20.81;52.97
70338;BME280;57757;53.198;19.646;2023-08-17T00:23:15;100625.46;;;20.81;52.99
70338;BME280;57757;53.198;19.646;2023-08-17T00:25:43;100622.46;;;20.80;53.07
70338;BME280;57757;53.198;19.646;2023-08-17T00:28:10;100618.75;;;20.80;53.02
70338;BME280;57757;53.198;19.646;2023-08-17T00:30:37;100616.25;;;20.81;53.16
70338;BME280;57757;53.198;19.646;2023-08-17T00:33:05;100608.44;;;20.81;53.17
70338;BME280;57757;53.198;19.646;2023-08-17T00:35:33;100606.57;;;20.83;53.33
70338;BME280;57757;53.198;19.646;2023-08-17T00:38:01;100605.45;;;20.84;53.36
70338;BME280;57757;53.198;19.646;2023-08-17T00:40:28;100610.05;;;20.84;53.39
70338;BME280;57757;53.198;19.646;2023-08-17T00:42:56;100613.34;;;20.82;53.50
70338;BME280;57757;53.198;19.646;2023-08-17T00:45:23;100611.75;;;20.82;53.47
70338;BME280;57757;53.198;19.646;2023-08-17T00:47:51;100609.64;;;20.82;53.58
70338;BME280;57757;53.198;19.646;2023-08-17T00:50:19;100610.83;;;20.83;53.61
70338;BME280;57757;53.198;19.646;2023-08-17T00:52:47;100604.28;;;20.83;53.72
70338;BME280;57757;53.198;19.646;2023-08-17T00:55:14;100599.98;;;20.84;53.89
70338;BME280;57757;53.198;19.646;2023-08-17T00:57:42;100597.70;;;20.84;53.81
70338;BME280;57757;53.198;19.646;2023-08-17T01:00:12;100597.52;;;20.81;53.87
70338;BME280;57757;53.198;19.646;2023-08-17T01:02:44;100599.55;;;20.79;54.00
70338;BME280;57757;53.198;19.646;2023-08-17T01:05:12;100597.62;;;20.79;53.96
70338;BME280;57757;53.198;19.646;2023-08-17T01:07:40;100596.27;;;20.78;54.06
70338;BME280;57757;53.198;19.646;2023-08-17T01:10:08;100597.80;;;20.76;54.14
70338;BME280;57757;53.198;19.646;2023-08-17T01:12:42;100605.98;;;20.72;54.12
70338;BME280;57757;53.198;19.646;2023-08-17T01:15:16;100617.32;;;20.69;54.29
70338;BME280;57757;53.198;19.646;2023-08-17T01:18:13;100619.85;;;20.68;54.34
70338;BME280;57757;53.198;19.646;2023-08-17T01:20:44;100614.42;;;20.67;54.33
70338;BME280;57757;53.198;19.646;2023-08-17T01:23:13;100611.95;;;20.67;54.57
70338;BME280;57757;53.198;19.646;2023-08-17T01:25:41;100612.49;;;20.66;54.57
70338;BME280;57757;53.198;19.646;2023-08-17T01:28:08;100614.05;;;20.67;54.50
70338;BME280;57757;53.198;19.646;2023-08-17T01:30:59;100613.00;;;20.67;54.67
70338;BME280;57757;53.198;19.646;2023-08-17T01:33:50;100608.05;;;20.67;54.71
70338;BME280;57757;53.198;19.646;2023-08-17T01:36:22;100606.65;;;20.67;54.75
70338;BME280;57757;53.198;19.646;2023-08-17T01:38:53;100609.13;;;20.67;54.82
70338;BME280;57757;53.198;19.646;2023-08-17T01:41:23;100607.75;;;20.66;54.84
70338;BME280;57757;53.198;19.646;2023-08-17T01:43:53;100596.96;;;20.66;55.03
70338;BME280;57757;53.198;19.646;2023-08-17T01:46:21;100590.79;;;20.66;55.12
70338;BME280;57757;53.198;19.646;2023-08-17T01:48:49;100585.38;;;20.65;55.10
70338;BME280;57757;53.198;19.646;2023-08-17T01:51:18;100592.52;;;20.64;55.29
70338;BME280;57757;53.198;19.646;2023-08-17T01:53:49;100605.70;;;20.62;55.49
70338;BME280;57757;53.198;19.646;2023-08-17T01:56:17;100599.21;;;20.61;55.48
70338;BME280;57757;53.198;19.646;2023-08-17T01:58:44;100593.69;;;20.59;55.51
70338;BME280;57757;53.198;19.646;2023-08-17T02:01:12;100589.73;;;20.57;55.50
70338;BME280;57757;53.198;19.646;2023-08-17T02:03:39;100575.16;;;20.56;55.48
70338;BME280;57757;53.198;19.646;2023-08-17T02:06:07;100571.80;;;20.52;55.50
70338;BME280;57757;53.198;19.646;2023-08-17T02:08:37;100572.15;;;20.49;55.61
70338;BME280;57757;53.198;19.646;2023-08-17T02:11:04;100567.34;;;20.47;55.67
70338;BME280;57757;53.198;19.646;2023-08-17T02:13:32;100564.19;;;20.46;55.67
70338;BME280;57757;53.198;19.646;2023-08-17T02:15:59;100563.04;;;20.45;55.73
70338;BME280;57757;53.198;19.646;2023-08-17T02:18:27;100558.30;;;20.44;55.76
70338;BME280;57757;53.198;19.646;2023-08-17T02:20:58;100559.05;;;20.43;55.99
70338;BME280;57757;53.198;19.646;2023-08-17T02:23:25;100563.30;;;20.43;56.02
70338;BME280;57757;53.198;19.646;2023-08-17T02:25:53;100559.41;;;20.43;55.99
70338;BME280;57757;53.198;19.646;2023-08-17T02:28:20;100549.48;;;20.41;55.96
70338;BME280;57757;53.198;19.646;2023-08-17T02:30:48;100542.54;;;20.42;56.13
70338;BME280;57757;53.198;19.646;2023-08-17T02:33:16;100539.98;;;20.43;56.12
70338;BME280;57757;53.198;19.646;2023-08-17T02:35:49;100539.20;;;20.45;56.13
70338;BME280;57757;53.198;19.646;2023-08-17T02:38:16;100548.29;;;20.46;56.14
70338;BME280;57757;53.198;19.646;2023-08-17T02:40:44;100567.98;;;20.48;56.22
70338;BME280;57757;53.198;19.646;2023-08-17T02:43:11;100577.04;;;20.47;56.20
70338;BME280;57757;53.198;19.646;2023-08-17T02:45:39;100576.92;;;20.46;56.18
70338;BME280;57757;53.198;19.646;2023-08-17T02:48:06;100575.38;;;20.46;56.21
70338;BME280;57757;53.198;19.646;2023-08-17T02:50:34;100562.51;;;20.45;56.26
70338;BME280;57757;53.198;19.646;2023-08-17T02:53:01;100553.36;;;20.44;56.32
70338;BME280;57757;53.198;19.646;2023-08-17T02:55:30;100544.66;;;20.45;56.41
70338;BME280;57757;53.198;19.646;2023-08-17T02:57:57;100535.66;;;20.45;56.35
70338;BME280;57757;53.198;19.646;2023-08-17T03:00:25;100548.58;;;20.44;56.35
70338;BME280;57757;53.198;19.646;2023-08-17T03:02:52;100563.25;;;20.44;56.38
70338;BME280;57757;53.198;19.646;2023-08-17T03:05:21;100578.85;;;20.43;56.39
70338;BME280;57757;53.198;19.646;2023-08-17T03:07:49;100597.34;;;20.41;56.27
70338;BME280;57757;53.198;19.646;2023-08-17T03:10:16;100604.86;;;20.39;56.33
70338;BME280;57757;53.198;19.646;2023-08-17T03:12:44;100585.27;;;20.39;56.40
70338;BME280;57757;53.198;19.646;2023-08-17T03:15:11;100567.77;;;20.39;56.36
70338;BME280;57757;53.198;19.646;2023-08-17T03:17:39;100571.89;;;20.39;56.42
70338;BME280;57757;53.198;19.646;2023-08-17T03:20:07;100573.73;;;20.37;56.51
70338;BME280;57757;53.198;19.646;2023-08-17T03:22:35;100579.81;;;20.36;56.45
70338;BME280;57757;53.198;19.646;2023-08-17T03:25:02;100584.52;;;20.34;56.39
70338;BME280;57757;53.198;19.646;2023-08-17T03:27:30;100593.71;;;20.34;56.57
70338;BME280;57757;53.198;19.646;2023-08-17T03:29:58;100594.45;;;20.33;56.58
70338;BME280;57757;53.198;19.646;2023-08-17T03:32:25;100594.11;;;20.33;56.53
70338;BME280;57757;53.198;19.646;2023-08-17T03:34:53;100585.27;;;20.33;56.56
70338;BME280;57757;53.198;19.646;2023-08-17T03:37:20;100582.58;;;20.34;56.61
70338;BME280;57757;53.198;19.646;2023-08-17T03:39:48;100587.86;;;20.34;56.53
70338;BME280;57757;53.198;19.646;2023-08-17T03:42:15;100592.64;;;20.34;56.64
70338;BME280;57757;53.198;19.646;2023-08-17T03:44:43;100592.86;;;20.34;56.59
70338;BME280;57757;53.198;19.646;2023-08-17T03:47:10;100598.34;;;20.33;56.69
70338;BME280;57757;53.198;19.646;2023-08-17T03:49:38;100601.51;;;20.34;56.52
70338;BME280;57757;53.198;19.646;2023-08-17T03:52:06;100608.73;;;20.34;56.70
70338;BME280;57757;53.198;19.646;2023-08-17T03:54:33;100608.55;;;20.34;56.62
70338;BME280;57757;53.198;19.646;2023-08-17T03:57:01;100607.73;;;20.33;56.68
70338;BME280;57757;53.198;19.646;2023-08-17T03:59:28;100600.06;;;20.31;56.55
70338;BME280;57757;53.198;19.646;2023-08-17T04:01:55;100591.46;;;20.30;56.65
70338;BME280;57757;53.198;19.646;2023-08-17T04:04:23;100592.19;;;20.30;56.77
70338;BME280;57757;53.198;19.646;2023-08-17T04:06:51;100597.96;;;20.31;56.88
70338;BME280;57757;53.198;19.646;2023-08-17T04:09:18;100601.41;;;20.32;56.91
70338;BME280;57757;53.198;19.646;2023-08-17T04:11:45;100603.05;;;20.31;56.77
70338;BME280;57757;53.198;19.646;2023-08-17T04:14:13;100604.64;;;20.31;56.93
70338;BME280;57757;53.198;19.646;2023-08-17T04:16:41;100605.50;;;20.32;56.92
70338;BME280;57757;53.198;19.646;2023-08-17T04:19:09;100596.95;;;20.33;56.89
70338;BME280;57757;53.198;19.646;2023-08-17T04:21:36;100578.77;;;20.33;57.08
70338;BME280;57757;53.198;19.646;2023-08-17T04:24:04;100564.77;;;20.33;56.98
70338;BME280;57757;53.198;19.646;2023-08-17T04:26:31;100547.45;;;20.34;56.96
70338;BME280;57757;53.198;19.646;2023-08-17T04:28:59;100536.72;;;20.33;57.02
70338;BME280;57757;53.198;19.646;2023-08-17T04:31:26;100543.34;;;20.31;57.10
70338;BME280;57757;53.198;19.646;2023-08-17T04:33:54;100547.32;;;20.30;57.02
70338;BME280;57757;53.198;19.646;2023-08-17T04:36:21;100549.13;;;20.29;57.16
70338;BME280;57757;53.198;19.646;2023-08-17T04:38:49;100546.11;;;20.26;57.13
70338;BME280;57757;53.198;19.646;2023-08-17T04:41:16;100551.30;;;20.24;57.09
70338;BME280;57757;53.198;19.646;2023-08-17T04:43:44;100560.77;;;20.23;57.07
70338;BME280;57757;53.198;19.646;2023-08-17T04:46:13;100559.36;;;20.23;57.22
70338;BME280;57757;53.198;19.646;2023-08-17T04:48:41;100560.41;;;20.23;57.18
70338;BME280;57757;53.198;19.646;2023-08-17T04:51:09;100565.27;;;20.24;57.14
70338;BME280;57757;53.198;19.646;2023-08-17T04:53:36;100573.19;;;20.25;57.17
70338;BME280;57757;53.198;19.646;2023-08-17T04:56:04;100571.14;;;20.23;57.08
70338;BME280;57757;53.198;19.646;2023-08-17T04:58:32;100574.63;;;20.25;57.16
70338;BME280;57757;53.198;19.646;2023-08-17T05:00:59;100574.37;;;20.23;57.22
70338;BME280;57757;53.198;19.646;2023-08-17T05:03:27;100569.09;;;20.23;57.15
70338;BME280;57757;53.198;19.646;2023-08-17T05:06:00;100573.81;;;20.23;57.33
70338;BME280;57757;53.198;19.646;2023-08-17T05:08:28;100579.23;;;20.24;57.10
70338;BME280;57757;53.198;19.646;2023-08-17T05:10:57;100588.23;;;20.24;57.19
70338;BME280;57757;53.198;19.646;2023-08-17T05:13:24;100593.84;;;20.25;57.29
70338;BME280;57757;53.198;19.646;2023-08-17T05:15:52;100596.04;;;20.27;57.23
70338;BME280;57757;53.198;19.646;2023-08-17T05:18:19;100596.47;;;20.29;57.17
70338;BME280;57757;53.198;19.646;2023-08-17T05:20:47;100592.11;;;20.31;57.26
70338;BME280;57757;53.198;19.646;2023-08-17T05:23:14;100588.65;;;20.36;57.27
70338;BME280;57757;53.198;19.646;2023-08-17T05:25:46;100585.05;;;20.40;57.25
70338;BME280;57757;53.198;19.646;2023-08-17T05:28:14;100587.79;;;20.44;57.18
70338;BME280;57757;53.198;19.646;2023-08-17T05:30:41;100598.92;;;20.51;57.18
70338;BME280;57757;53.198;19.646;2023-08-17T05:33:09;100611.79;;;20.58;57.26
70338;BME280;57757;53.198;19.646;2023-08-17T05:35:36;100616.60;;;20.63;57.28
70338;BME280;57757;53.198;19.646;2023-08-17T05:38:04;100619.62;;;20.69;57.19
70338;BME280;57757;53.198;19.646;2023-08-17T05:40:32;100629.10;;;20.72;57.18
70338;BME280;57757;53.198;19.646;2023-08-17T05:42:59;100637.54;;;20.77;57.14
70338;BME280;57757;53.198;19.646;2023-08-17T05:45:27;100626.95;;;20.79;57.00
70338;BME280;57757;53.198;19.646;2023-08-17T05:47:54;100623.48;;;20.84;57.00
70338;BME280;57757;53.198;19.646;2023-08-17T05:50:22;100611.70;;;20.89;57.03
70338;BME280;57757;53.198;19.646;2023-08-17T05:52:49;100619.36;;;20.93;57.03
70338;BME280;57757;53.198;19.646;2023-08-17T05:55:17;100622.52;;;21.00;57.04
70338;BME280;57757;53.198;19.646;2023-08-17T05:57:44;100627.98;;;21.06;57.13
70338;BME280;57757;53.198;19.646;2023-08-17T06:00:12;100635.56;;;21.13;57.05
70338;BME280;57757;53.198;19.646;2023-08-17T06:02:40;100635.58;;;21.18;56.80
70338;BME280;57757;53.198;19.646;2023-08-17T06:05:08;100637.50;;;21.22;56.76
70338;BME280;57757;53.198;19.646;2023-08-17T06:07:37;100632.26;;;21.26;56.82
70338;BME280;57757;53.198;19.646;2023-08-17T06:10:05;100632.34;;;21.31;56.73
70338;BME280;57757;53.198;19.646;2023-08-17T06:12:33;100632.02;;;21.36;56.73
70338;BME280;57757;53.198;19.646;2023-08-17T06:15:02;100629.63;;;21.40;56.85
70338;BME280;57757;53.198;19.646;2023-08-17T06:17:30;100633.87;;;21.46;56.81
70338;BME280;57757;53.198;19.646;2023-08-17T06:19:58;100633.08;;;21.51;56.63
70338;BME280;57757;53.198;19.646;2023-08-17T06:22:25;100638.61;;;21.53;56.65
70338;BME280;57757;53.198;19.646;2023-08-17T06:24:53;100640.98;;;21.55;56.59
70338;BME280;57757;53.198;19.646;2023-08-17T06:27:20;100646.59;;;21.56;56.42
70338;BME280;57757;53.198;19.646;2023-08-17T06:29:48;100656.55;;;21.55;56.38
70338;BME280;57757;53.198;19.646;2023-08-17T06:32:15;100667.35;;;21.55;56.29
70338;BME280;57757;53.198;19.646;2023-08-17T06:34:43;100670.20;;;21.54;56.31
70338;BME280;57757;53.198;19.646;2023-08-17T06:37:11;100667.45;;;21.53;56.24
70338;BME280;57757;53.198;19.646;2023-08-17T06:39:38;100659.08;;;21.51;56.14
70338;BME280;57757;53.198;19.646;2023-08-17T06:42:06;100655.71;;;21.48;56.21
70338;BME280;57757;53.198;19.646;2023-08-17T06:44:33;100649.45;;;21.46;56.31
70338;BME280;57757;53.198;19.646;2023-08-17T06:47:01;100650.92;;;21.45;56.29
70338;BME280;57757;53.198;19.646;2023-08-17T06:49:28;100646.73;;;21.44;56.21
70338;BME280;57757;53.198;19.646;2023-08-17T06:51:56;100649.22;;;21.44;56.40
70338;BME280;57757;53.198;19.646;2023-08-17T06:54:24;100649.09;;;21.43;56.33
70338;BME280;57757;53.198;19.646;2023-08-17T06:56:51;100651.45;;;21.45;56.35
70338;BME280;57757;53.198;19.646;2023-08-17T06:59:19;100649.80;;;21.50;56.38
70338;BME280;57757;53.198;19.646;2023-08-17T07:01:46;100648.84;;;21.56;56.50
70338;BME280;57757;53.198;19.646;2023-08-17T07:04:14;100645.48;;;21.65;56.51
70338;BME280;57757;53.198;19.646;2023-08-17T07:06:41;100648.23;;;21.74;56.50
70338;BME280;57757;53.198;19.646;2023-08-17T07:09:10;100653.66;;;21.90;56.55
70338;BME280;57757;53.198;19.646;2023-08-17T07:11:40;100651.83;;;22.02;56.44
70338;BME280;57757;53.198;19.646;2023-08-17T07:14:07;100658.16;;;22.11;56.35
70338;BME280;57757;53.198;19.646;2023-08-17T07:16:35;100660.09;;;22.19;56.28
70338;BME280;57757;53.198;19.646;2023-08-17T07:19:02;100660.69;;;22.29;56.27
70338;BME280;57757;53.198;19.646;2023-08-17T07:21:30;100668.59;;;22.36;56.01
70338;BME280;57757;53.198;19.646;2023-08-17T07:23:57;100672.29;;;22.45;56.02
70338;BME280;57757;53.198;19.646;2023-08-17T07:26:25;100680.64;;;22.55;56.11
70338;BME280;57757;53.198;19.646;2023-08-17T07:28:52;100684.99;;;22.64;55.99
70338;BME280;57757;53.198;19.646;2023-08-17T07:31:20;100679.96;;;22.76;56.01
70338;BME280;57757;53.198;19.646;2023-08-17T07:33:47;100678.87;;;22.90;55.94
70338;BME280;57757;53.198;19.646;2023-08-17T07:36:15;100675.20;;;23.00;55.82
70338;BME280;57757;53.198;19.646;2023-08-17T07:38:43;100673.13;;;23.09;55.69
70338;BME280;57757;53.198;19.646;2023-08-17T07:41:10;100672.66;;;23.19;55.63
70338;BME280;57757;53.198;19.646;2023-08-17T07:43:38;100678.54;;;23.28;55.60
70338;BME280;57757;53.198;19.646;2023-08-17T07:46:05;100679.24;;;23.39;55.52
70338;BME280;57757;53.198;19.646;2023-08-17T07:48:33;100677.66;;;23.52;55.49
70338;BME280;57757;53.198;19.646;2023-08-17T07:51:00;100673.40;;;23.65;55.36
70338;BME280;57757;53.198;19.646;2023-08-17T07:53:28;100670.05;;;23.77;55.34
70338;BME280;57757;53.198;19.646;2023-08-17T07:55:56;100672.40;;;23.86;55.21
70338;BME280;57757;53.198;19.646;2023-08-17T07:58:25;100667.29;;;23.96;55.16
70338;BME280;57757;53.198;19.646;2023-08-17T08:00:52;100667.68;;;24.05;55.09
70338;BME280;57757;53.198;19.646;2023-08-17T08:03:20;100663.28;;;24.12;54.95
70338;BME280;57757;53.198;19.646;2023-08-17T08:05:47;100662.20;;;24.17;54.74
70338;BME280;57757;53.198;19.646;2023-08-17T08:08:15;100660.11;;;24.26;54.80
70338;BME280;57757;53.198;19.646;2023-08-17T08:10:44;100658.89;;;24.41;54.75
70338;BME280;57757;53.198;19.646;2023-08-17T08:13:12;100655.44;;;24.54;54.58
70338;BME280;57757;53.198;19.646;2023-08-17T08:15:42;100654.94;;;24.63;54.40
70338;BME280;57757;53.198;19.646;2023-08-17T08:18:09;100652.98;;;24.70;54.43
70338;BME280;57757;53.198;19.646;2023-08-17T08:20:37;100646.27;;;24.76;54.23
70338;BME280;57757;53.198;19.646;2023-08-17T08:23:05;100646.20;;;24.82;53.98
70338;BME280;57757;53.198;19.646;2023-08-17T08:25:33;100649.08;;;24.89;54.01
70338;BME280;57757;53.198;19.646;2023-08-17T08:28:00;100650.71;;;24.98;53.98
70338;BME280;57757;53.198;19.646;2023-08-17T08:30:28;100652.11;;;25.07;53.88
70338;BME280;57757;53.198;19.646;2023-08-17T08:32:55;100651.30;;;25.18;53.94
70338;BME280;57757;53.198;19.646;2023-08-17T08:35:25;100649.73;;;25.29;53.77
70338;BME280;57757;53.198;19.646;2023-08-17T08:37:54;100642.31;;;25.40;53.73
70338;BME280;57757;53.198;19.646;2023-08-17T08:40:28;100643.66;;;25.47;53.57
70338;BME280;57757;53.198;19.646;2023-08-17T08:42:57;100641.34;;;25.50;53.30
70338;BME280;57757;53.198;19.646;2023-08-17T08:45:27;100639.11;;;25.49;53.36
70338;BME280;57757;53.198;19.646;2023-08-17T08:47:57;100636.62;;;25.56;53.37
70338;BME280;57757;53.198;19.646;2023-08-17T08:50:31;100634.82;;;25.60;53.29
70338;BME280;57757;53.198;19.646;2023-08-17T08:53:00;100637.02;;;25.64;53.28
70338;BME280;57757;53.198;19.646;2023-08-17T08:55:29;100642.50;;;25.69;53.21
70338;BME280;57757;53.198;19.646;2023-08-17T08:57:58;100642.29;;;25.70;53.02
70338;BME280;57757;53.198;19.646;2023-08-17T09:00:26;100638.47;;;25.66;52.75
70338;BME280;57757;53.198;19.646;2023-08-17T09:02:54;100637.35;;;25.66;52.81
70338;BME280;57757;53.198;19.646;2023-08-17T09:05:22;100640.05;;;25.71;52.88
70338;BME280;57757;53.198;19.646;2023-08-17T09:07:52;100643.87;;;25.79;52.77
70338;BME280;57757;53.198;19.646;2023-08-17T09:10:19;100643.55;;;25.89;52.76
70338;BME280;57757;53.198;19.646;2023-08-17T09:12:47;100638.29;;;25.99;52.63
70338;BME280;57757;53.198;19.646;2023-08-17T09:15:16;100633.37;;;26.14;52.69
70338;BME280;57757;53.198;19.646;2023-08-17T09:17:44;100632.85;;;26.36;52.71
70338;BME280;57757;53.198;19.646;2023-08-17T09:25:41;100624.45;;;27.06;52.19
70338;BME280;57757;53.198;19.646;2023-08-17T09:28:14;100621.52;;;27.23;52.08
70338;BME280;57757;53.198;19.646;2023-08-17T09:30:59;100616.66;;;27.49;52.07
70338;BME280;57757;53.198;19.646;2023-08-17T09:33:30;100618.74;;;27.75;52.00
70338;BME280;57757;53.198;19.646;2023-08-17T09:35:59;100613.15;;;28.02;51.91
70338;BME280;57757;53.198;19.646;2023-08-17T09:38:27;100612.70;;;28.37;51.84
70338;BME280;57757;53.198;19.646;2023-08-17T09:40:57;100609.98;;;28.74;51.62
70338;BME280;57757;53.198;19.646;2023-08-17T09:43:25;100610.48;;;29.11;51.60
70338;BME280;57757;53.198;19.646;2023-08-17T09:45:57;100608.64;;;29.49;51.31
70338;BME280;57757;53.198;19.646;2023-08-17T09:48:25;100606.41;;;29.85;50.99
70338;BME280;57757;53.198;19.646;2023-08-17T09:50:56;100609.71;;;30.15;50.45
70338;BME280;57757;53.198;19.646;2023-08-17T09:53:24;100613.11;;;30.41;50.19
70338;BME280;57757;53.198;19.646;2023-08-17T09:55:53;100612.62;;;30.58;49.81
70338;BME280;57757;53.198;19.646;2023-08-17T09:58:22;100608.73;;;30.71;49.59
70338;BME280;57757;53.198;19.646;2023-08-17T10:00:50;100608.58;;;30.94;49.57
70338;BME280;57757;53.198;19.646;2023-08-17T10:03:19;100608.70;;;31.21;49.34
70338;BME280;57757;53.198;19.646;2023-08-17T10:05:54;100606.44;;;31.43;49.09
70338;BME280;57757;53.198;19.646;2023-08-17T10:08:23;100603.56;;;31.46;48.38
70338;BME280;57757;53.198;19.646;2023-08-17T10:10:52;100608.52;;;31.36;48.38
70338;BME280;57757;53.198;19.646;2023-08-17T10:16:33;100615.11;;;31.20;47.91
70338;BME280;57757;53.198;19.646;2023-08-17T10:19:20;100613.61;;;31.12;47.89
70338;BME280;57757;53.198;19.646;2023-08-17T10:22:48;100614.72;;;31.16;47.70
70338;BME280;57757;53.198;19.646;2023-08-17T10:24:49;100606.36;;;31.31;47.69
70338;BME280;57757;53.198;19.646;2023-08-17T10:27:17;100599.70;;;31.57;47.65
70338;BME280;57757;53.198;19.646;2023-08-17T10:29:45;100601.17;;;31.91;47.54
70338;BME280;57757;53.198;19.646;2023-08-17T10:32:16;100597.81;;;32.22;47.29
70338;BME280;57757;53.198;19.646;2023-08-17T10:34:44;100601.75;;;32.42;46.94
70338;BME280;57757;53.198;19.646;2023-08-17T10:37:13;100601.03;;;32.62;46.57
70338;BME280;57757;53.198;19.646;2023-08-17T10:39:46;100603.27;;;32.78;46.40
70338;BME280;57757;53.198;19.646;2023-08-17T10:42:14;100602.13;;;32.91;46.19
70338;BME280;57757;53.198;19.646;2023-08-17T10:44:49;100601.44;;;33.00;46.05
70338;BME280;57757;53.198;19.646;2023-08-17T10:49:55;100603.65;;;33.16;45.56
70338;BME280;57757;53.198;19.646;2023-08-17T10:52:30;100598.61;;;33.19;45.36
70338;BME280;57757;53.198;19.646;2023-08-17T10:55:07;100594.73;;;33.22;45.16
70338;BME280;57757;53.198;19.646;2023-08-17T10:57:36;100588.34;;;33.24;44.97
70338;BME280;57757;53.198;19.646;2023-08-17T11:02:37;100592.15;;;33.24;44.86
70338;BME280;57757;53.198;19.646;2023-08-17T11:05:06;100590.63;;;33.26;44.63
70338;BME280;57757;53.198;19.646;2023-08-17T11:07:42;100588.34;;;33.30;44.49
70338;BME280;57757;53.198;19.646;2023-08-17T11:10:27;100584.25;;;33.33;44.38
70338;BME280;57757;53.198;19.646;2023-08-17T11:12:59;100583.16;;;33.44;44.06
70338;BME280;57757;53.198;19.646;2023-08-17T11:15:43;100582.30;;;33.71;43.97
70338;BME280;57757;53.198;19.646;2023-08-17T11:18:12;100580.31;;;34.14;44.10
70338;BME280;57757;53.198;19.646;2023-08-17T11:20:41;100582.47;;;34.60;43.83
70338;BME280;57757;53.198;19.646;2023-08-17T11:23:10;100579.11;;;34.97;43.47
70338;BME280;57757;53.198;19.646;2023-08-17T11:25:38;100575.98;;;35.28;43.00
70338;BME280;57757;53.198;19.646;2023-08-17T11:28:07;100575.76;;;35.61;42.61
70338;BME280;57757;53.198;19.646;2023-08-17T11:30:36;100573.91;;;35.93;42.52
70338;BME280;57757;53.198;19.646;2023-08-17T11:33:06;100575.76;;;36.13;42.07
70338;BME280;57757;53.198;19.646;2023-08-17T11:35:38;100578.89;;;36.43;41.98
70338;BME280;57757;53.198;19.646;2023-08-17T11:38:07;100581.21;;;36.84;41.98
70338;BME280;57757;53.198;19.646;2023-08-17T11:40:36;100581.08;;;37.16;41.33
70338;BME280;57757;53.198;19.646;2023-08-17T11:43:03;100580.65;;;37.40;40.99
70338;BME280;57757;53.198;19.646;2023-08-17T11:45:32;100583.50;;;37.74;40.76
70338;BME280;57757;53.198;19.646;2023-08-17T11:48:01;100582.46;;;38.12;40.63
70338;BME280;57757;53.198;19.646;2023-08-17T11:50:29;100581.38;;;38.67;40.39
70338;BME280;57757;53.198;19.646;2023-08-17T11:52:59;100580.19;;;39.19;39.98
70338;BME280;57757;53.198;19.646;2023-08-17T11:55:28;100570.59;;;39.69;39.49
70338;BME280;57757;53.198;19.646;2023-08-17T11:57:56;100570.38;;;40.22;39.06
70338;BME280;57757;53.198;19.646;2023-08-17T12:00:24;100570.97;;;40.63;38.40
70338;BME280;57757;53.198;19.646;2023-08-17T12:02:53;100563.71;;;40.88;38.07
70338;BME280;57757;53.198;19.646;2023-08-17T12:05:22;100558.22;;;41.14;37.77
70338;BME280;57757;53.198;19.646;2023-08-17T12:07:52;100559.64;;;41.16;37.09
70338;BME280;57757;53.198;19.646;2023-08-17T12:10:20;100557.81;;;40.93;36.74
70338;BME280;57757;53.198;19.646;2023-08-17T12:12:50;100554.62;;;40.54;36.37
70338;BME280;57757;53.198;19.646;2023-08-17T12:15:18;100550.39;;;40.09;36.11
70338;BME280;57757;53.198;19.646;2023-08-17T12:17:48;100546.69;;;39.86;36.15
70338;BME280;57757;53.198;19.646;2023-08-17T12:20:17;100548.52;;;40.03;36.19
70338;BME280;57757;53.198;19.646;2023-08-17T12:22:46;100547.98;;;40.23;35.89
70338;BME280;57757;53.198;19.646;2023-08-17T12:25:14;100546.23;;;40.61;35.87
70338;BME280;57757;53.198;19.646;2023-08-17T12:27:42;100546.67;;;41.11;35.42
70338;BME280;57757;53.198;19.646;2023-08-17T12:30:29;100543.58;;;41.52;35.15
70338;BME280;57757;53.198;19.646;2023-08-17T12:32:59;100539.80;;;42.11;34.76
70338;BME280;57757;53.198;19.646;2023-08-17T12:35:27;100541.98;;;42.61;34.47
70338;BME280;57757;53.198;19.646;2023-08-17T12:37:55;100540.92;;;42.99;34.11
70338;BME280;57757;53.198;19.646;2023-08-17T12:40:23;100536.13;;;43.27;33.61
70338;BME280;57757;53.198;19.646;2023-08-17T12:42:51;100530.10;;;43.50;33.28
70338;BME280;57757;53.198;19.646;2023-08-17T12:45:18;100528.41;;;43.87;32.77
70338;BME280;57757;53.198;19.646;2023-08-17T12:47:46;100529.67;;;44.18;32.47
70338;BME280;57757;53.198;19.646;2023-08-17T12:50:14;100526.39;;;44.46;32.06
70338;BME280;57757;53.198;19.646;2023-08-17T12:52:41;100524.89;;;44.77;31.88
70338;BME280;57757;53.198;19.646;2023-08-17T12:55:13;100520.83;;;45.14;31.63
70338;BME280;57757;53.198;19.646;2023-08-17T12:57:41;100522.12;;;45.55;31.29
70338;BME280;57757;53.198;19.646;2023-08-17T13:00:09;100519.48;;;45.94;30.99
70338;BME280;57757;53.198;19.646;2023-08-17T13:02:37;100518.86;;;46.15;30.41